Welling, United Kingdom
Current Conditions -  °F | °C
As of 8:50 AM on Monday 22 Dec 2014 (Local Time) from EGLC Reporting Station
Broken Clouds Broken Clouds  
Wind Chill: 57°   Ceiling: 3200
Heat Index: 57°   Visibility: 6mi
Dew Point: 48°   Wind: 22mph
Humidity: 72%   Direction: 250°WSW
Pressure: 30.03"   Gusts: 35mph
Location:  51.47°N, 0.12°E
Report Text: EGLC 220850Z 25019G30KT 9999 SCT024 BKN032 14/09 Q1017
Loading
Personal Weather Stations






























Interactive Weather Map New forecast layout! Learn more

10-Day Weather Forecast

Advertisements
Track Severe Weather on mobile